sensor_id;sensor_type;location;lat;lon;timestamp;P1;durP1;ratioP1;P2;durP2;ratioP2
21681;SDS011;11002;48.256;10.084;2023-02-28T00:01:11;4.40;;;2.90;;
21681;SDS011;11002;48.256;10.084;2023-02-28T00:03:38;3.50;;;2.08;;
21681;SDS011;11002;48.256;10.084;2023-02-28T00:06:07;5.72;;;2.67;;
21681;SDS011;11002;48.256;10.084;2023-02-28T00:08:35;3.40;;;2.63;;
21681;SDS011;11002;48.256;10.084;2023-02-28T00:11:04;3.30;;;2.47;;
21681;SDS011;11002;48.256;10.084;2023-02-28T00:13:34;4.93;;;2.60;;
21681;SDS011;11002;48.256;10.084;2023-02-28T00:16:03;4.47;;;2.80;;
21681;SDS011;11002;48.256;10.084;2023-02-28T00:18:32;6.05;;;3.03;;
21681;SDS011;11002;48.256;10.084;2023-02-28T00:21:00;4.25;;;2.40;;
21681;SDS011;11002;48.256;10.084;2023-02-28T00:23:28;3.50;;;2.78;;
21681;SDS011;11002;48.256;10.084;2023-02-28T00:25:56;2.55;;;2.33;;
21681;SDS011;11002;48.256;10.084;2023-02-28T00:28:23;4.75;;;2.78;;
21681;SDS011;11002;48.256;10.084;2023-02-28T00:30:51;4.07;;;2.83;;
21681;SDS011;11002;48.256;10.084;2023-02-28T00:33:19;5.13;;;2.72;;
21681;SDS011;11002;48.256;10.084;2023-02-28T00:35:46;3.78;;;2.70;;
21681;SDS011;11002;48.256;10.084;2023-02-28T00:38:14;3.97;;;2.20;;
21681;SDS011;11002;48.256;10.084;2023-02-28T00:40:43;4.28;;;2.75;;
21681;SDS011;11002;48.256;10.084;2023-02-28T00:43:11;3.88;;;2.50;;
21681;SDS011;11002;48.256;10.084;2023-02-28T00:45:38;2.53;;;2.20;;
21681;SDS011;11002;48.256;10.084;2023-02-28T00:48:05;4.07;;;2.40;;
21681;SDS011;11002;48.256;10.084;2023-02-28T00:50:33;3.35;;;2.30;;
21681;SDS011;11002;48.256;10.084;2023-02-28T00:53:00;6.68;;;2.40;;
21681;SDS011;11002;48.256;10.084;2023-02-28T00:55:27;3.10;;;2.78;;
21681;SDS011;11002;48.256;10.084;2023-02-28T00:57:56;2.63;;;2.22;;
21681;SDS011;11002;48.256;10.084;2023-02-28T01:00:24;2.97;;;2.05;;
21681;SDS011;11002;48.256;10.084;2023-02-28T01:02:51;2.45;;;2.20;;
21681;SDS011;11002;48.256;10.084;2023-02-28T01:05:18;3.80;;;2.50;;
21681;SDS011;11002;48.256;10.084;2023-02-28T01:07:46;3.63;;;2.85;;
21681;SDS011;11002;48.256;10.084;2023-02-28T01:10:13;2.58;;;2.08;;
21681;SDS011;11002;48.256;10.084;2023-02-28T01:12:40;3.88;;;2.40;;
21681;SDS011;11002;48.256;10.084;2023-02-28T01:15:11;4.07;;;2.75;;
21681;SDS011;11002;48.256;10.084;2023-02-28T01:17:38;4.75;;;2.50;;
21681;SDS011;11002;48.256;10.084;2023-02-28T01:20:06;4.00;;;2.58;;
21681;SDS011;11002;48.256;10.084;2023-02-28T01:22:35;2.92;;;2.20;;
21681;SDS011;11002;48.256;10.084;2023-02-28T01:25:02;4.80;;;2.38;;
21681;SDS011;11002;48.256;10.084;2023-02-28T01:27:30;3.45;;;2.78;;
21681;SDS011;11002;48.256;10.084;2023-02-28T01:29:58;4.32;;;2.28;;
21681;SDS011;11002;48.256;10.084;2023-02-28T01:32:26;3.30;;;2.30;;
21681;SDS011;11002;48.256;10.084;2023-02-28T01:34:54;3.35;;;2.40;;
21681;SDS011;11002;48.256;10.084;2023-02-28T01:37:22;4.32;;;2.38;;
21681;SDS011;11002;48.256;10.084;2023-02-28T01:39:49;3.17;;;2.35;;
21681;SDS011;11002;48.256;10.084;2023-02-28T01:42:19;3.13;;;2.22;;
21681;SDS011;11002;48.256;10.084;2023-02-28T01:44:58;5.57;;;3.22;;
21681;SDS011;11002;48.256;10.084;2023-02-28T01:47:30;2.80;;;2.10;;
21681;SDS011;11002;48.256;10.084;2023-02-28T01:50:00;3.47;;;2.53;;
21681;SDS011;11002;48.256;10.084;2023-02-28T01:52:30;4.05;;;2.65;;
21681;SDS011;11002;48.256;10.084;2023-02-28T01:54:59;5.95;;;2.60;;
21681;SDS011;11002;48.256;10.084;2023-02-28T01:57:30;3.35;;;2.67;;
21681;SDS011;11002;48.256;10.084;2023-02-28T02:00:05;4.32;;;2.63;;
21681;SDS011;11002;48.256;10.084;2023-02-28T02:02:47;3.60;;;2.38;;
21681;SDS011;11002;48.256;10.084;2023-02-28T02:05:17;3.72;;;2.83;;
21681;SDS011;11002;48.256;10.084;2023-02-28T02:07:46;4.07;;;2.78;;
21681;SDS011;11002;48.256;10.084;2023-02-28T02:10:17;20.92;;;10.50;;
21681;SDS011;11002;48.256;10.084;2023-02-28T02:13:00;3.92;;;2.47;;
21681;SDS011;11002;48.256;10.084;2023-02-28T02:15:39;3.10;;;2.63;;
21681;SDS011;11002;48.256;10.084;2023-02-28T02:18:14;6.00;;;3.50;;
21681;SDS011;11002;48.256;10.084;2023-02-28T02:21:10;4.28;;;2.67;;
21681;SDS011;11002;48.256;10.084;2023-02-28T02:24:03;4.93;;;2.90;;
21681;SDS011;11002;48.256;10.084;2023-02-28T02:31:18;4.70;;;2.42;;
21681;SDS011;11002;48.256;10.084;2023-02-28T02:37:04;4.13;;;2.80;;
21681;SDS011;11002;48.256;10.084;2023-02-28T02:39:45;2.70;;;2.47;;
21681;SDS011;11002;48.256;10.084;2023-02-28T02:42:19;3.95;;;2.50;;
21681;SDS011;11002;48.256;10.084;2023-02-28T02:44:53;8.70;;;2.80;;
21681;SDS011;11002;48.256;10.084;2023-02-28T02:47:25;3.65;;;2.58;;
21681;SDS011;11002;48.256;10.084;2023-02-28T02:49:57;4.45;;;2.70;;
21681;SDS011;11002;48.256;10.084;2023-02-28T02:52:32;4.75;;;3.17;;
21681;SDS011;11002;48.256;10.084;2023-02-28T02:55:05;3.83;;;2.80;;
21681;SDS011;11002;48.256;10.084;2023-02-28T02:57:38;4.85;;;2.58;;
21681;SDS011;11002;48.256;10.084;2023-02-28T03:00:13;4.63;;;2.65;;
21681;SDS011;11002;48.256;10.084;2023-02-28T03:02:42;4.10;;;2.70;;
21681;SDS011;11002;48.256;10.084;2023-02-28T03:05:12;4.00;;;2.92;;
21681;SDS011;11002;48.256;10.084;2023-02-28T03:07:45;2.88;;;2.58;;
21681;SDS011;11002;48.256;10.084;2023-02-28T03:10:27;5.05;;;2.75;;
21681;SDS011;11002;48.256;10.084;2023-02-28T03:15:30;4.70;;;3.00;;
21681;SDS011;11002;48.256;10.084;2023-02-28T03:18:06;3.70;;;2.63;;
21681;SDS011;11002;48.256;10.084;2023-02-28T03:20:38;4.32;;;2.83;;
21681;SDS011;11002;48.256;10.084;2023-02-28T03:23:15;4.68;;;3.05;;
21681;SDS011;11002;48.256;10.084;2023-02-28T03:25:50;6.20;;;2.83;;
21681;SDS011;11002;48.256;10.084;2023-02-28T03:28:26;3.28;;;2.75;;
21681;SDS011;11002;48.256;10.084;2023-02-28T03:31:02;4.35;;;2.75;;
21681;SDS011;11002;48.256;10.084;2023-02-28T03:33:35;6.68;;;2.90;;
21681;SDS011;11002;48.256;10.084;2023-02-28T03:36:09;4.70;;;3.20;;
21681;SDS011;11002;48.256;10.084;2023-02-28T03:38:42;3.55;;;2.78;;
21681;SDS011;11002;48.256;10.084;2023-02-28T03:41:13;3.97;;;2.55;;
21681;SDS011;11002;48.256;10.084;2023-02-28T03:43:45;4.75;;;3.10;;
21681;SDS011;11002;48.256;10.084;2023-02-28T03:46:19;4.82;;;3.08;;
21681;SDS011;11002;48.256;10.084;2023-02-28T03:48:51;4.07;;;3.03;;
21681;SDS011;11002;48.256;10.084;2023-02-28T03:51:22;4.75;;;2.90;;
21681;SDS011;11002;48.256;10.084;2023-02-28T03:53:53;4.85;;;2.90;;
21681;SDS011;11002;48.256;10.084;2023-02-28T03:56:24;5.32;;;2.75;;
21681;SDS011;11002;48.256;10.084;2023-02-28T03:58:57;4.90;;;3.30;;
21681;SDS011;11002;48.256;10.084;2023-02-28T04:01:30;4.07;;;3.13;;
21681;SDS011;11002;48.256;10.084;2023-02-28T04:04:01;5.13;;;3.53;;
21681;SDS011;11002;48.256;10.084;2023-02-28T04:06:30;4.75;;;3.40;;
21681;SDS011;11002;48.256;10.084;2023-02-28T04:09:01;7.57;;;4.15;;
21681;SDS011;11002;48.256;10.084;2023-02-28T04:11:31;5.60;;;3.55;;
21681;SDS011;11002;48.256;10.084;2023-02-28T04:14:01;3.70;;;3.05;;
21681;SDS011;11002;48.256;10.084;2023-02-28T04:16:28;4.18;;;2.72;;
21681;SDS011;11002;48.256;10.084;2023-02-28T04:18:56;3.90;;;3.38;;
21681;SDS011;11002;48.256;10.084;2023-02-28T04:21:27;4.53;;;3.50;;
21681;SDS011;11002;48.256;10.084;2023-02-28T04:23:54;3.42;;;3.03;;
21681;SDS011;11002;48.256;10.084;2023-02-28T04:26:29;7.20;;;3.15;;
21681;SDS011;11002;48.256;10.084;2023-02-28T04:28:57;5.22;;;3.25;;
21681;SDS011;11002;48.256;10.084;2023-02-28T04:31:24;5.88;;;3.83;;
21681;SDS011;11002;48.256;10.084;2023-02-28T04:33:52;6.13;;;3.65;;
21681;SDS011;11002;48.256;10.084;2023-02-28T04:36:20;4.53;;;3.30;;
21681;SDS011;11002;48.256;10.084;2023-02-28T04:38:48;5.93;;;3.72;;
21681;SDS011;11002;48.256;10.084;2023-02-28T04:41:16;6.25;;;4.00;;
21681;SDS011;11002;48.256;10.084;2023-02-28T04:43:45;5.38;;;3.60;;
21681;SDS011;11002;48.256;10.084;2023-02-28T04:46:13;12.10;;;4.35;;
21681;SDS011;11002;48.256;10.084;2023-02-28T04:48:40;4.10;;;3.50;;
21681;SDS011;11002;48.256;10.084;2023-02-28T04:51:09;5.80;;;4.10;;
21681;SDS011;11002;48.256;10.084;2023-02-28T04:53:38;6.47;;;4.32;;
21681;SDS011;11002;48.256;10.084;2023-02-28T04:56:07;8.55;;;4.65;;
21681;SDS011;11002;48.256;10.084;2023-02-28T04:58:35;5.78;;;4.22;;
21681;SDS011;11002;48.256;10.084;2023-02-28T05:01:06;5.75;;;4.35;;
21681;SDS011;11002;48.256;10.084;2023-02-28T05:03:42;7.20;;;3.92;;
21681;SDS011;11002;48.256;10.084;2023-02-28T05:06:10;8.18;;;5.30;;
21681;SDS011;11002;48.256;10.084;2023-02-28T05:08:39;10.52;;;5.68;;
21681;SDS011;11002;48.256;10.084;2023-02-28T05:11:07;7.25;;;4.47;;
21681;SDS011;11002;48.256;10.084;2023-02-28T05:13:39;8.33;;;4.53;;
21681;SDS011;11002;48.256;10.084;2023-02-28T05:16:08;6.97;;;5.00;;
21681;SDS011;11002;48.256;10.084;2023-02-28T05:18:36;9.38;;;6.70;;
21681;SDS011;11002;48.256;10.084;2023-02-28T05:21:03;6.28;;;5.15;;
21681;SDS011;11002;48.256;10.084;2023-02-28T05:23:31;7.57;;;5.30;;
21681;SDS011;11002;48.256;10.084;2023-02-28T05:25:59;6.00;;;5.13;;
21681;SDS011;11002;48.256;10.084;2023-02-28T05:28:26;6.57;;;4.45;;
21681;SDS011;11002;48.256;10.084;2023-02-28T05:30:54;8.52;;;4.72;;
21681;SDS011;11002;48.256;10.084;2023-02-28T05:33:22;6.95;;;4.50;;
21681;SDS011;11002;48.256;10.084;2023-02-28T05:35:50;6.38;;;4.35;;
21681;SDS011;11002;48.256;10.084;2023-02-28T05:38:17;10.07;;;5.63;;
21681;SDS011;11002;48.256;10.084;2023-02-28T05:40:45;7.55;;;5.50;;
21681;SDS011;11002;48.256;10.084;2023-02-28T05:43:12;7.10;;;5.50;;
21681;SDS011;11002;48.256;10.084;2023-02-28T05:45:39;7.97;;;5.07;;
21681;SDS011;11002;48.256;10.084;2023-02-28T05:48:07;7.18;;;5.45;;
21681;SDS011;11002;48.256;10.084;2023-02-28T05:50:36;10.07;;;5.35;;
21681;SDS011;11002;48.256;10.084;2023-02-28T05:53:03;7.32;;;4.85;;
21681;SDS011;11002;48.256;10.084;2023-02-28T05:55:31;6.30;;;4.78;;
21681;SDS011;11002;48.256;10.084;2023-02-28T05:57:58;6.53;;;4.85;;
21681;SDS011;11002;48.256;10.084;2023-02-28T06:00:25;8.65;;;5.78;;
21681;SDS011;11002;48.256;10.084;2023-02-28T06:02:53;9.40;;;6.15;;
21681;SDS011;11002;48.256;10.084;2023-02-28T06:05:23;7.45;;;5.78;;
21681;SDS011;11002;48.256;10.084;2023-02-28T06:07:52;8.32;;;5.78;;
21681;SDS011;11002;48.256;10.084;2023-02-28T06:10:19;8.95;;;5.65;;
21681;SDS011;11002;48.256;10.084;2023-02-28T06:12:47;10.63;;;7.03;;
21681;SDS011;11002;48.256;10.084;2023-02-28T06:15:14;12.93;;;6.95;;
21681;SDS011;11002;48.256;10.084;2023-02-28T06:17:43;13.70;;;6.68;;
21681;SDS011;11002;48.256;10.084;2023-02-28T06:20:12;12.07;;;7.90;;
21681;SDS011;11002;48.256;10.084;2023-02-28T06:22:39;11.57;;;7.43;;
21681;SDS011;11002;48.256;10.084;2023-02-28T06:25:08;8.00;;;5.63;;
21681;SDS011;11002;48.256;10.084;2023-02-28T06:27:36;10.70;;;6.18;;
21681;SDS011;11002;48.256;10.084;2023-02-28T06:30:04;13.27;;;7.15;;
21681;SDS011;11002;48.256;10.084;2023-02-28T06:32:32;7.43;;;5.70;;
21681;SDS011;11002;48.256;10.084;2023-02-28T06:35:01;9.48;;;6.43;;
21681;SDS011;11002;48.256;10.084;2023-02-28T06:37:30;10.20;;;6.78;;
21681;SDS011;11002;48.256;10.084;2023-02-28T06:39:58;9.73;;;6.53;;
21681;SDS011;11002;48.256;10.084;2023-02-28T06:42:27;8.25;;;6.13;;
21681;SDS011;11002;48.256;10.084;2023-02-28T06:44:56;8.23;;;6.18;;
21681;SDS011;11002;48.256;10.084;2023-02-28T06:47:23;10.70;;;6.63;;
21681;SDS011;11002;48.256;10.084;2023-02-28T06:49:51;10.43;;;7.25;;
21681;SDS011;11002;48.256;10.084;2023-02-28T06:52:18;14.50;;;7.22;;
21681;SDS011;11002;48.256;10.084;2023-02-28T06:54:47;10.98;;;6.28;;
21681;SDS011;11002;48.256;10.084;2023-02-28T06:57:26;10.93;;;6.88;;
21681;SDS011;11002;48.256;10.084;2023-02-28T06:59:56;12.23;;;7.25;;
21681;SDS011;11002;48.256;10.084;2023-02-28T07:02:24;14.07;;;7.35;;
21681;SDS011;11002;48.256;10.084;2023-02-28T07:04:52;12.00;;;7.10;;
21681;SDS011;11002;48.256;10.084;2023-02-28T07:07:20;8.50;;;6.47;;
21681;SDS011;11002;48.256;10.084;2023-02-28T07:09:47;9.13;;;6.47;;
21681;SDS011;11002;48.256;10.084;2023-02-28T07:12:15;10.15;;;7.20;;
21681;SDS011;11002;48.256;10.084;2023-02-28T07:14:44;14.80;;;8.88;;
21681;SDS011;11002;48.256;10.084;2023-02-28T07:17:12;14.65;;;8.95;;
21681;SDS011;11002;48.256;10.084;2023-02-28T07:19:39;11.60;;;7.40;;
21681;SDS011;11002;48.256;10.084;2023-02-28T07:22:06;10.52;;;7.63;;
21681;SDS011;11002;48.256;10.084;2023-02-28T07:24:34;12.75;;;7.47;;
21681;SDS011;11002;48.256;10.084;2023-02-28T07:27:01;11.20;;;7.60;;
21681;SDS011;11002;48.256;10.084;2023-02-28T07:29:29;11.65;;;7.60;;
21681;SDS011;11002;48.256;10.084;2023-02-28T07:31:58;13.80;;;8.20;;
21681;SDS011;11002;48.256;10.084;2023-02-28T07:34:25;8.93;;;6.15;;
21681;SDS011;11002;48.256;10.084;2023-02-28T07:36:53;14.13;;;7.75;;
21681;SDS011;11002;48.256;10.084;2023-02-28T07:39:20;11.05;;;7.13;;
21681;SDS011;11002;48.256;10.084;2023-02-28T07:41:48;14.52;;;8.52;;
21681;SDS011;11002;48.256;10.084;2023-02-28T07:44:15;14.60;;;10.10;;
21681;SDS011;11002;48.256;10.084;2023-02-28T07:46:43;12.10;;;8.10;;
21681;SDS011;11002;48.256;10.084;2023-02-28T07:49:11;15.82;;;8.80;;
21681;SDS011;11002;48.256;10.084;2023-02-28T07:51:39;11.90;;;8.10;;
21681;SDS011;11002;48.256;10.084;2023-02-28T07:54:07;13.13;;;8.38;;
21681;SDS011;11002;48.256;10.084;2023-02-28T07:56:34;15.00;;;9.02;;
21681;SDS011;11002;48.256;10.084;2023-02-28T07:59:01;10.02;;;7.53;;
21681;SDS011;11002;48.256;10.084;2023-02-28T08:01:29;11.23;;;7.97;;
21681;SDS011;11002;48.256;10.084;2023-02-28T08:03:56;10.13;;;7.45;;
21681;SDS011;11002;48.256;10.084;2023-02-28T08:06:25;11.93;;;8.10;;
21681;SDS011;11002;48.256;10.084;2023-02-28T08:08:52;10.27;;;7.22;;
21681;SDS011;11002;48.256;10.084;2023-02-28T08:11:21;11.20;;;7.30;;
21681;SDS011;11002;48.256;10.084;2023-02-28T08:13:48;13.40;;;8.90;;
21681;SDS011;11002;48.256;10.084;2023-02-28T08:16:16;11.95;;;7.47;;
21681;SDS011;11002;48.256;10.084;2023-02-28T08:18:47;12.80;;;8.25;;
21681;SDS011;11002;48.256;10.084;2023-02-28T08:21:15;15.70;;;8.35;;
21681;SDS011;11002;48.256;10.084;2023-02-28T08:23:45;10.45;;;8.05;;
21681;SDS011;11002;48.256;10.084;2023-02-28T08:26:13;12.63;;;8.95;;
21681;SDS011;11002;48.256;10.084;2023-02-28T08:28:41;13.98;;;9.45;;
21681;SDS011;11002;48.256;10.084;2023-02-28T08:31:09;15.43;;;9.15;;
21681;SDS011;11002;48.256;10.084;2023-02-28T08:33:38;15.52;;;9.80;;
21681;SDS011;11002;48.256;10.084;2023-02-28T08:36:07;15.82;;;9.43;;
21681;SDS011;11002;48.256;10.084;2023-02-28T08:38:35;14.30;;;9.65;;
21681;SDS011;11002;48.256;10.084;2023-02-28T08:41:06;14.55;;;9.27;;
21681;SDS011;11002;48.256;10.084;2023-02-28T08:43:35;12.80;;;8.98;;
21681;SDS011;11002;48.256;10.084;2023-02-28T08:46:03;14.32;;;9.30;;
21681;SDS011;11002;48.256;10.084;2023-02-28T08:48:31;13.25;;;8.82;;
21681;SDS011;11002;48.256;10.084;2023-02-28T08:51:01;14.40;;;8.63;;
21681;SDS011;11002;48.256;10.084;2023-02-28T08:53:30;15.02;;;10.00;;
21681;SDS011;11002;48.256;10.084;2023-02-28T08:55:58;15.02;;;9.15;;
21681;SDS011;11002;48.256;10.084;2023-02-28T08:58:28;12.40;;;8.80;;
21681;SDS011;11002;48.256;10.084;2023-02-28T09:00:55;13.25;;;9.10;;
21681;SDS011;11002;48.256;10.084;2023-02-28T09:03:23;15.70;;;10.43;;
21681;SDS011;11002;48.256;10.084;2023-02-28T09:05:53;16.42;;;11.65;;
21681;SDS011;11002;48.256;10.084;2023-02-28T09:08:22;14.00;;;9.90;;
21681;SDS011;11002;48.256;10.084;2023-02-28T09:10:50;11.88;;;8.60;;
21681;SDS011;11002;48.256;10.084;2023-02-28T09:13:17;12.13;;;8.40;;
21681;SDS011;11002;48.256;10.084;2023-02-28T09:15:46;14.05;;;9.02;;
21681;SDS011;11002;48.256;10.084;2023-02-28T09:18:13;17.38;;;9.38;;
21681;SDS011;11002;48.256;10.084;2023-02-28T09:20:41;18.23;;;8.45;;
21681;SDS011;11002;48.256;10.084;2023-02-28T09:23:09;12.35;;;8.70;;
21681;SDS011;11002;48.256;10.084;2023-02-28T09:25:44;14.70;;;10.05;;
21681;SDS011;11002;48.256;10.084;2023-02-28T09:28:12;14.30;;;9.43;;
21681;SDS011;11002;48.256;10.084;2023-02-28T09:30:42;12.80;;;8.02;;
21681;SDS011;11002;48.256;10.084;2023-02-28T09:33:12;13.43;;;8.77;;
21681;SDS011;11002;48.256;10.084;2023-02-28T09:35:40;13.75;;;9.07;;
21681;SDS011;11002;48.256;10.084;2023-02-28T09:38:08;13.77;;;9.13;;
21681;SDS011;11002;48.256;10.084;2023-02-28T09:40:36;11.63;;;8.50;;
21681;SDS011;11002;48.256;10.084;2023-02-28T09:43:12;11.68;;;8.75;;
21681;SDS011;11002;48.256;10.084;2023-02-28T09:45:44;11.60;;;8.77;;
21681;SDS011;11002;48.256;10.084;2023-02-28T09:48:19;11.43;;;8.13;;
21681;SDS011;11002;48.256;10.084;2023-02-28T09:50:52;12.18;;;8.75;;
21681;SDS011;11002;48.256;10.084;2023-02-28T09:53:26;12.57;;;9.32;;
21681;SDS011;11002;48.256;10.084;2023-02-28T09:56:00;17.42;;;8.50;;
21681;SDS011;11002;48.256;10.084;2023-02-28T09:58:32;15.20;;;9.68;;
21681;SDS011;11002;48.256;10.084;2023-02-28T10:01:06;13.98;;;8.85;;
21681;SDS011;11002;48.256;10.084;2023-02-28T10:03:40;13.45;;;9.75;;
21681;SDS011;11002;48.256;10.084;2023-02-28T10:06:14;13.90;;;9.15;;
21681;SDS011;11002;48.256;10.084;2023-02-28T10:08:47;15.68;;;10.23;;
21681;SDS011;11002;48.256;10.084;2023-02-28T10:11:21;20.90;;;8.40;;
21681;SDS011;11002;48.256;10.084;2023-02-28T10:13:51;17.88;;;9.15;;
21681;SDS011;11002;48.256;10.084;2023-02-28T10:16:22;12.70;;;8.60;;
21681;SDS011;11002;48.256;10.084;2023-02-28T10:18:56;13.38;;;9.05;;
21681;SDS011;11002;48.256;10.084;2023-02-28T10:21:28;13.25;;;9.32;;
21681;SDS011;11002;48.256;10.084;2023-02-28T10:24:01;13.15;;;8.57;;
21681;SDS011;11002;48.256;10.084;2023-02-28T10:26:32;13.70;;;9.07;;
21681;SDS011;11002;48.256;10.084;2023-02-28T10:28:59;17.15;;;9.00;;
21681;SDS011;11002;48.256;10.084;2023-02-28T10:31:28;13.18;;;8.88;;
21681;SDS011;11002;48.256;10.084;2023-02-28T10:33:57;12.18;;;9.25;;
21681;SDS011;11002;48.256;10.084;2023-02-28T10:36:24;14.40;;;9.10;;
21681;SDS011;11002;48.256;10.084;2023-02-28T10:38:51;20.45;;;11.68;;
21681;SDS011;11002;48.256;10.084;2023-02-28T10:41:26;12.98;;;9.27;;
21681;SDS011;11002;48.256;10.084;2023-02-28T10:46:46;16.33;;;9.98;;
21681;SDS011;11002;48.256;10.084;2023-02-28T10:49:17;16.25;;;10.10;;
21681;SDS011;11002;48.256;10.084;2023-02-28T10:51:48;15.57;;;9.27;;
21681;SDS011;11002;48.256;10.084;2023-02-28T10:54:19;13.13;;;8.02;;
21681;SDS011;11002;48.256;10.084;2023-02-28T10:59:32;14.00;;;8.93;;
21681;SDS011;11002;48.256;10.084;2023-02-28T11:01:59;18.20;;;10.40;;
21681;SDS011;11002;48.256;10.084;2023-02-28T11:04:36;14.27;;;9.20;;
21681;SDS011;11002;48.256;10.084;2023-02-28T11:07:06;12.85;;;8.57;;
21681;SDS011;11002;48.256;10.084;2023-02-28T11:09:45;14.27;;;9.63;;
21681;SDS011;11002;48.256;10.084;2023-02-28T11:12:22;14.10;;;8.60;;
21681;SDS011;11002;48.256;10.084;2023-02-28T11:14:52;14.80;;;8.43;;
21681;SDS011;11002;48.256;10.084;2023-02-28T11:17:23;11.43;;;8.55;;
21681;SDS011;11002;48.256;10.084;2023-02-28T11:19:54;15.60;;;9.05;;
21681;SDS011;11002;48.256;10.084;2023-02-28T11:22:24;13.20;;;9.23;;
21681;SDS011;11002;48.256;10.084;2023-02-28T11:24:55;11.02;;;8.43;;
21681;SDS011;11002;48.256;10.084;2023-02-28T11:27:39;13.43;;;8.40;;
21681;SDS011;11002;48.256;10.084;2023-02-28T11:30:22;13.25;;;7.95;;
21681;SDS011;11002;48.256;10.084;2023-02-28T11:32:54;12.85;;;9.05;;
21681;SDS011;11002;48.256;10.084;2023-02-28T11:35:24;12.00;;;9.00;;
21681;SDS011;11002;48.256;10.084;2023-02-28T11:37:55;10.95;;;9.27;;
21681;SDS011;11002;48.256;10.084;2023-02-28T11:40:24;10.88;;;8.27;;
21681;SDS011;11002;48.256;10.084;2023-02-28T11:43:01;11.45;;;7.90;;
21681;SDS011;11002;48.256;10.084;2023-02-28T11:45:44;13.38;;;8.85;;
21681;SDS011;11002;48.256;10.084;2023-02-28T11:48:20;12.75;;;9.02;;
21681;SDS011;11002;48.256;10.084;2023-02-28T11:51:01;11.45;;;7.72;;
21681;SDS011;11002;48.256;10.084;2023-02-28T11:53:50;9.85;;;7.50;;
21681;SDS011;11002;48.256;10.084;2023-02-28T11:56:46;12.52;;;8.35;;
21681;SDS011;11002;48.256;10.084;2023-02-28T11:59:30;10.25;;;7.72;;
21681;SDS011;11002;48.256;10.084;2023-02-28T12:02:08;10.75;;;8.20;;
21681;SDS011;11002;48.256;10.084;2023-02-28T12:07:46;8.85;;;7.25;;
21681;SDS011;11002;48.256;10.084;2023-02-28T12:10:23;9.70;;;7.65;;
21681;SDS011;11002;48.256;10.084;2023-02-28T12:12:56;10.18;;;7.00;;
21681;SDS011;11002;48.256;10.084;2023-02-28T12:15:37;12.23;;;8.40;;
21681;SDS011;11002;48.256;10.084;2023-02-28T12:18:23;9.50;;;8.20;;
21681;SDS011;11002;48.256;10.084;2023-02-28T12:20:57;10.48;;;8.43;;
21681;SDS011;11002;48.256;10.084;2023-02-28T12:23:42;10.38;;;8.23;;
21681;SDS011;11002;48.256;10.084;2023-02-28T12:26:19;11.00;;;8.13;;
21681;SDS011;11002;48.256;10.084;2023-02-28T12:28:59;10.50;;;7.28;;
21681;SDS011;11002;48.256;10.084;2023-02-28T12:31:33;11.60;;;7.53;;
21681;SDS011;11002;48.256;10.084;2023-02-28T12:34:04;14.32;;;8.50;;
21681;SDS011;11002;48.256;10.084;2023-02-28T12:36:36;9.02;;;7.32;;
21681;SDS011;11002;48.256;10.084;2023-02-28T12:39:07;13.25;;;8.55;;
21681;SDS011;11002;48.256;10.084;2023-02-28T12:41:41;13.55;;;9.10;;
21681;SDS011;11002;48.256;10.084;2023-02-28T12:44:12;9.77;;;7.97;;
21681;SDS011;11002;48.256;10.084;2023-02-28T12:46:45;16.08;;;9.10;;
21681;SDS011;11002;48.256;10.084;2023-02-28T12:49:16;12.40;;;8.75;;
21681;SDS011;11002;48.256;10.084;2023-02-28T12:51:48;11.15;;;8.48;;
21681;SDS011;11002;48.256;10.084;2023-02-28T12:54:21;15.38;;;8.55;;
21681;SDS011;11002;48.256;10.084;2023-02-28T12:56:54;10.52;;;7.95;;
21681;SDS011;11002;48.256;10.084;2023-02-28T12:59:26;8.68;;;7.57;;
21681;SDS011;11002;48.256;10.084;2023-02-28T13:02:09;11.40;;;7.82;;
21681;SDS011;11002;48.256;10.084;2023-02-28T13:05:07;10.20;;;7.70;;
21681;SDS011;11002;48.256;10.084;2023-02-28T13:07:53;11.45;;;8.50;;
21681;SDS011;11002;48.256;10.084;2023-02-28T13:10:41;10.07;;;7.72;;
21681;SDS011;11002;48.256;10.084;2023-02-28T13:13:14;10.23;;;7.85;;
21681;SDS011;11002;48.256;10.084;2023-02-28T13:15:56;15.25;;;8.98;;
21681;SDS011;11002;48.256;10.084;2023-02-28T13:18:29;12.07;;;8.25;;
21681;SDS011;11002;48.256;10.084;2023-02-28T13:20:59;12.10;;;7.97;;
21681;SDS011;11002;48.256;10.084;2023-02-28T13:23:38;9.60;;;7.78;;
21681;SDS011;11002;48.256;10.084;2023-02-28T13:26:25;10.93;;;8.43;;
21681;SDS011;11002;48.256;10.084;2023-02-28T13:29:31;11.07;;;7.78;;
21681;SDS011;11002;48.256;10.084;2023-02-28T13:32:20;11.65;;;7.90;;
21681;SDS011;11002;48.256;10.084;2023-02-28T13:38:15;10.57;;;7.78;;
21681;SDS011;11002;48.256;10.084;2023-02-28T13:44:15;10.25;;;8.40;;
21681;SDS011;11002;48.256;10.084;2023-02-28T13:49:51;11.07;;;8.05;;
21681;SDS011;11002;48.256;10.084;2023-02-28T13:52:20;11.25;;;8.45;;
21681;SDS011;11002;48.256;10.084;2023-02-28T13:54:57;11.65;;;8.27;;
21681;SDS011;11002;48.256;10.084;2023-02-28T14:00:28;9.75;;;7.68;;
21681;SDS011;11002;48.256;10.084;2023-02-28T14:03:16;10.57;;;7.78;;
21681;SDS011;11002;48.256;10.084;2023-02-28T14:08:56;13.85;;;8.50;;
21681;SDS011;11002;48.256;10.084;2023-02-28T14:11:28;12.45;;;8.88;;
21681;SDS011;11002;48.256;10.084;2023-02-28T14:13:59;12.88;;;9.00;;
21681;SDS011;11002;48.256;10.084;2023-02-28T14:16:28;14.45;;;9.70;;
21681;SDS011;11002;48.256;10.084;2023-02-28T14:19:05;15.98;;;9.93;;
21681;SDS011;11002;48.256;10.084;2023-02-28T14:21:39;13.27;;;10.02;;
21681;SDS011;11002;48.256;10.084;2023-02-28T14:27:19;13.90;;;9.82;;
21681;SDS011;11002;48.256;10.084;2023-02-28T14:33:00;12.27;;;8.93;;
21681;SDS011;11002;48.256;10.084;2023-02-28T14:35:54;12.40;;;9.07;;
21681;SDS011;11002;48.256;10.084;2023-02-28T14:38:40;11.45;;;8.75;;
21681;SDS011;11002;48.256;10.084;2023-02-28T14:41:16;11.65;;;8.98;;
21681;SDS011;11002;48.256;10.084;2023-02-28T14:43:53;23.35;;;12.82;;
21681;SDS011;11002;48.256;10.084;2023-02-28T14:46:22;13.52;;;8.52;;
21681;SDS011;11002;48.256;10.084;2023-02-28T14:48:55;14.10;;;10.18;;
21681;SDS011;11002;48.256;10.084;2023-02-28T14:51:23;11.05;;;7.85;;
21681;SDS011;11002;48.256;10.084;2023-02-28T14:53:52;14.00;;;8.25;;
21681;SDS011;11002;48.256;10.084;2023-02-28T14:56:24;12.93;;;7.93;;
21681;SDS011;11002;48.256;10.084;2023-02-28T14:58:56;12.48;;;8.07;;
21681;SDS011;11002;48.256;10.084;2023-02-28T15:01:24;14.75;;;8.48;;
21681;SDS011;11002;48.256;10.084;2023-02-28T15:04:02;12.05;;;7.63;;
21681;SDS011;11002;48.256;10.084;2023-02-28T15:06:31;13.65;;;9.20;;
21681;SDS011;11002;48.256;10.084;2023-02-28T15:09:06;11.18;;;8.45;;
21681;SDS011;11002;48.256;10.084;2023-02-28T15:11:35;11.25;;;8.32;;
21681;SDS011;11002;48.256;10.084;2023-02-28T15:14:05;9.38;;;7.93;;
21681;SDS011;11002;48.256;10.084;2023-02-28T15:16:34;9.60;;;7.80;;
21681;SDS011;11002;48.256;10.084;2023-02-28T15:19:06;13.65;;;8.80;;
21681;SDS011;11002;48.256;10.084;2023-02-28T15:21:41;11.20;;;8.98;;
21681;SDS011;11002;48.256;10.084;2023-02-28T15:24:13;11.23;;;7.57;;
21681;SDS011;11002;48.256;10.084;2023-02-28T15:26:49;11.80;;;8.20;;
21681;SDS011;11002;48.256;10.084;2023-02-28T15:29:21;11.57;;;7.95;;
21681;SDS011;11002;48.256;10.084;2023-02-28T15:31:50;10.82;;;7.72;;